Time;durP1;ratioP1;P1;durP2;ratioP2;P2;SDS_P1;SDS_P2;PMS_P1;PMS_P2;Temp;Humidity;BMP_temperature;BMP_pressure;BME280_temperature;BME280_humidity;BME280_pressure;Samples;Min_cycle;Max_cycle;Signal;HPM_P1;HPM_P2
2022/12/23 00:00:53;;;;;;;98.82;50.85;;;;;;;;;;4890854;28;20123;-75
2022/12/23 00:03:19;;;;;;;96.38;47.67;;;;;;;;;;4905370;29;20051;-75
2022/12/23 00:05:45;;;;;;;95.50;45.45;;;;;;;;;;4905772;29;20399;-75
2022/12/23 00:08:11;;;;;;;103.22;46.53;;;;;;;;;;4898582;29;20040;-75
2022/12/23 00:10:38;;;;;;;95.25;45.45;;;;;;;;;;4904799;29;20179;-75
2022/12/23 00:15:49;;;;;;;87.78;42.90;;;;;;;;;;4901141;29;20055;-76
2022/12/23 00:18:15;;;;;;;97.05;41.53;;;;;;;;;;4903978;29;20028;-75
2022/12/23 00:20:40;;;;;;;85.93;40.40;;;;;;;;;;4907049;29;20068;-75
2022/12/23 00:23:06;;;;;;;73.78;39.03;;;;;;;;;;4907336;29;20032;-75
2022/12/23 00:25:40;;;;;;;70.38;37.42;;;;;;;;;;4906182;29;20059;-76
2022/12/23 00:28:17;;;;;;;68.45;35.22;;;;;;;;;;4911594;29;20048;-75
2022/12/23 00:30:50;;;;;;;74.38;35.78;;;;;;;;;;4905354;29;20087;-75
2022/12/23 00:33:20;;;;;;;75.97;38.60;;;;;;;;;;4906345;29;20048;-75
2022/12/23 00:35:46;;;;;;;73.30;37.38;;;;;;;;;;4906784;29;20950;-75
2022/12/23 00:38:13;;;;;;;66.75;35.45;;;;;;;;;;4905775;29;20367;-75
2022/12/23 00:43:23;;;;;;;74.18;35.08;;;;;;;;;;4909925;29;20165;-75
2022/12/23 00:45:49;;;;;;;72.22;37.90;;;;;;;;;;4906769;29;20055;-75
2022/12/23 00:50:59;;;;;;;76.40;39.88;;;;;;;;;;4903219;29;20048;-75
2022/12/23 00:53:25;;;;;;;73.68;36.15;;;;;;;;;;4905295;29;20029;-74
2022/12/23 00:55:51;;;;;;;72.43;34.42;;;;;;;;;;4907092;29;20068;-76
2022/12/23 00:58:19;;;;;;;64.47;32.53;;;;;;;;;;4907441;29;20032;-74
2022/12/23 01:06:15;;;;;;;64.30;30.92;;;;;;;;;;4911895;29;20524;-75
2022/12/23 01:08:42;;;;;;;59.10;29.50;;;;;;;;;;4903444;29;20044;-73
2022/12/23 01:11:10;;;;;;;58.47;30.10;;;;;;;;;;4905054;29;20044;-74
2022/12/23 01:13:36;;;;;;;52.45;26.67;;;;;;;;;;4906721;29;20422;-74
2022/12/23 01:16:08;;;;;;;52.72;26.42;;;;;;;;;;4906573;29;20130;-75
2022/12/23 01:18:35;;;;;;;50.38;25.05;;;;;;;;;;4904562;29;20041;-75
2022/12/23 01:21:05;;;;;;;47.20;24.90;;;;;;;;;;4905146;29;20036;-75
2022/12/23 01:23:31;;;;;;;48.40;24.85;;;;;;;;;;4908107;29;20044;-75
2022/12/23 01:25:59;;;;;;;55.88;26.25;;;;;;;;;;4907088;29;20065;-75
2022/12/23 01:28:26;;;;;;;47.08;25.33;;;;;;;;;;4908915;29;20130;-74
2022/12/23 01:30:52;;;;;;;45.25;21.13;;;;;;;;;;4906584;29;20132;-75
2022/12/23 01:33:18;;;;;;;41.03;21.08;;;;;;;;;;4907446;29;21304;-76
2022/12/23 01:35:44;;;;;;;36.67;19.38;;;;;;;;;;4904902;29;20051;-74
2022/12/23 01:38:10;;;;;;;36.42;19.38;;;;;;;;;;4907268;29;20079;-75
2022/12/23 01:40:38;;;;;;;33.83;17.83;;;;;;;;;;4905876;29;20130;-76
2022/12/23 01:43:04;;;;;;;36.42;18.85;;;;;;;;;;4900994;29;20033;-75
2022/12/23 01:45:31;;;;;;;33.47;16.70;;;;;;;;;;4906757;29;20034;-75
2022/12/23 01:47:59;;;;;;;31.52;17.67;;;;;;;;;;4906550;29;20164;-75
2022/12/23 01:50:28;;;;;;;33.53;18.38;;;;;;;;;;4907465;29;20032;-74
2022/12/23 01:53:17;;;;;;;33.05;17.70;;;;;;;;;;4906194;29;20629;-74
2022/12/23 01:55:49;;;;;;;35.50;18.77;;;;;;;;;;4905392;29;20042;-75
2022/12/23 01:58:23;;;;;;;37.75;18.77;;;;;;;;;;4904570;29;20068;-75
2022/12/23 02:03:41;;;;;;;46.75;24.60;;;;;;;;;;4902740;29;20040;-75
2022/12/23 02:09:26;;;;;;;56.58;27.00;;;;;;;;;;4905765;29;20091;-76
2022/12/23 02:12:02;;;;;;;52.80;26.30;;;;;;;;;;4902799;29;20043;-75
2022/12/23 02:17:28;;;;;;;50.05;25.60;;;;;;;;;;4906524;29;20040;-75
2022/12/23 02:20:10;;;;;;;52.42;26.10;;;;;;;;;;4905255;29;20501;-74
2022/12/23 02:22:58;;;;;;;50.00;25.67;;;;;;;;;;4901175;29;20041;-74
2022/12/23 02:25:43;;;;;;;59.10;27.95;;;;;;;;;;4906388;29;20491;-74
2022/12/23 02:28:46;;;;;;;53.67;25.27;;;;;;;;;;4904439;29;20035;-74
2022/12/23 02:31:37;;;;;;;49.45;24.95;;;;;;;;;;4904864;29;20043;-75
2022/12/23 02:34:20;;;;;;;47.33;23.58;;;;;;;;;;4908575;29;20058;-75
2022/12/23 02:36:46;;;;;;;49.30;24.33;;;;;;;;;;4908367;29;20150;-75
2022/12/23 02:39:46;;;;;;;45.33;22.40;;;;;;;;;;4906627;29;20111;-75
2022/12/23 02:42:16;;;;;;;50.40;26.05;;;;;;;;;;4905920;29;20032;-75
2022/12/23 02:45:02;;;;;;;55.88;25.42;;;;;;;;;;4903021;29;20076;-75
2022/12/23 02:47:36;;;;;;;47.67;24.88;;;;;;;;;;4905230;29;20107;-76
2022/12/23 02:50:05;;;;;;;;;;;;;;;;;;4907236;29;20032;-74
2022/12/23 02:52:33;;;;;;;50.38;25.63;;;;;;;;;;4903531;29;19978;-75
2022/12/23 02:55:04;;;;;;;51.90;24.95;;;;;;;;;;4907330;29;20028;-75
2022/12/23 02:57:36;;;;;;;49.25;23.92;;;;;;;;;;4905664;29;20127;-75
2022/12/23 03:00:04;;;;;;;52.03;24.40;;;;;;;;;;4903057;29;20050;-74
2022/12/23 03:02:33;;;;;;;51.95;23.92;;;;;;;;;;4910425;28;20406;-75
2022/12/23 03:04:58;;;;;;;47.15;24.85;;;;;;;;;;4904533;29;20066;-75
2022/12/23 03:07:37;;;;;;;45.78;24.27;;;;;;;;;;4903330;29;20467;-74
2022/12/23 03:10:27;;;;;;;44.55;21.25;;;;;;;;;;4904573;29;20037;-74
2022/12/23 03:13:01;;;;;;;46.80;22.10;;;;;;;;;;4905477;29;20044;-75
2022/12/23 03:15:54;;;;;;;49.45;24.13;;;;;;;;;;4902751;29;20092;-74
2022/12/23 03:18:41;;;;;;;41.00;22.38;;;;;;;;;;4906216;29;20123;-75
2022/12/23 03:21:19;;;;;;;39.65;21.45;;;;;;;;;;4902399;29;20036;-75
2022/12/23 03:23:55;;;;;;;71.03;24.83;;;;;;;;;;4902399;29;20119;-75
2022/12/23 03:26:30;;;;;;;51.10;22.50;;;;;;;;;;4908821;29;20163;-76
2022/12/23 03:29:04;;;;;;;45.55;22.60;;;;;;;;;;4900153;29;20028;-76
2022/12/23 03:31:32;;;;;;;50.90;24.23;;;;;;;;;;4907912;29;20036;-76
2022/12/23 03:34:04;;;;;;;51.22;23.98;;;;;;;;;;4911123;29;20102;-76
2022/12/23 03:36:40;;;;;;;46.55;22.50;;;;;;;;;;4912734;29;20032;-76
2022/12/23 03:39:11;;;;;;;42.08;21.92;;;;;;;;;;4902764;29;20085;-76
2022/12/23 03:41:41;;;;;;;50.90;23.20;;;;;;;;;;4911748;29;20118;-75
2022/12/23 03:44:27;;;;;;;42.47;21.67;;;;;;;;;;4911789;29;20251;-75
2022/12/23 03:47:00;;;;;;;52.78;24.30;;;;;;;;;;4909602;29;20099;-75
2022/12/23 03:49:34;;;;;;;50.97;25.92;;;;;;;;;;4912725;29;20116;-76
2022/12/23 03:52:08;;;;;;;58.13;24.95;;;;;;;;;;4913477;29;20040;-76
2022/12/23 03:54:43;;;;;;;53.25;25.63;;;;;;;;;;4913430;29;20047;-75
2022/12/23 03:57:10;;;;;;;48.55;22.63;;;;;;;;;;4916640;29;20081;-75
2022/12/23 03:59:41;;;;;;;51.67;25.02;;;;;;;;;;4916230;29;20032;-76
2022/12/23 04:02:25;;;;;;;46.88;25.58;;;;;;;;;;4916333;29;20402;-75
2022/12/23 04:05:00;;;;;;;54.67;25.88;;;;;;;;;;4913224;29;20028;-75
2022/12/23 04:07:55;;;;;;;72.05;27.88;;;;;;;;;;4914820;29;20032;-75
2022/12/23 04:10:22;;;;;;;55.50;29.00;;;;;;;;;;4915375;29;20119;-75
2022/12/23 04:12:48;;;;;;;66.15;30.02;;;;;;;;;;4914766;29;20044;-75
2022/12/23 04:15:20;;;;;;;60.28;29.25;;;;;;;;;;4898020;29;20036;-75
2022/12/23 04:17:46;;;;;;;62.65;30.10;;;;;;;;;;4913657;29;20040;-75
2022/12/23 04:20:12;;;;;;;65.93;31.73;;;;;;;;;;4915054;29;20098;-75
2022/12/23 04:22:38;;;;;;;63.63;30.02;;;;;;;;;;4916148;29;20522;-75
2022/12/23 04:25:05;;;;;;;67.25;32.45;;;;;;;;;;4915693;29;20047;-74
2022/12/23 04:27:31;;;;;;;66.20;31.27;;;;;;;;;;4915468;29;20039;-75
2022/12/23 04:29:56;;;;;;;60.60;30.25;;;;;;;;;;4914489;29;20028;-76
2022/12/23 04:32:22;;;;;;;59.35;28.63;;;;;;;;;;4879928;28;20090;-75
2022/12/23 04:34:48;;;;;;;71.10;31.73;;;;;;;;;;4880670;29;20021;-75
2022/12/23 04:37:14;;;;;;;56.55;27.77;;;;;;;;;;4878375;29;20566;-75
2022/12/23 04:39:39;;;;;;;58.97;29.50;;;;;;;;;;4877983;29;20033;-75
2022/12/23 04:42:05;;;;;;;67.95;29.77;;;;;;;;;;4875181;29;20144;-75
2022/12/23 04:44:31;;;;;;;61.67;28.75;;;;;;;;;;4887249;29;20025;-75
2022/12/23 04:46:57;;;;;;;63.55;31.27;;;;;;;;;;4880335;29;20116;-76
2022/12/23 04:49:22;;;;;;;62.13;31.10;;;;;;;;;;4878206;29;20037;-76
2022/12/23 04:51:48;;;;;;;63.80;31.38;;;;;;;;;;4874637;29;20128;-76
2022/12/23 04:54:14;;;;;;;80.40;35.22;;;;;;;;;;4877371;29;20029;-76
2022/12/23 04:56:40;;;;;;;61.45;32.05;;;;;;;;;;4876923;29;20041;-75
2022/12/23 04:59:05;;;;;;;63.92;33.42;;;;;;;;;;4875093;29;20021;-75
2022/12/23 05:01:31;;;;;;;69.57;33.10;;;;;;;;;;4876287;29;20056;-76
2022/12/23 05:03:57;;;;;;;65.93;30.15;;;;;;;;;;4878592;29;20044;-75
2022/12/23 05:06:23;;;;;;;71.53;33.42;;;;;;;;;;4877908;29;20487;-76
2022/12/23 05:08:49;;;;;;;68.47;31.55;;;;;;;;;;4878848;29;20040;-74
2022/12/23 05:11:14;;;;;;;67.13;31.90;;;;;;;;;;4880727;29;20025;-75
2022/12/23 05:13:40;;;;;;;56.30;27.42;;;;;;;;;;4879933;29;20033;-76
2022/12/23 05:16:06;;;;;;;53.33;27.92;;;;;;;;;;4878492;29;20044;-75
2022/12/23 05:18:32;;;;;;;54.67;27.00;;;;;;;;;;4876142;29;20387;-75
2022/12/23 05:20:58;;;;;;;49.85;25.25;;;;;;;;;;4880987;29;20124;-74
2022/12/23 05:23:23;;;;;;;47.83;25.88;;;;;;;;;;4880434;29;20037;-76
2022/12/23 05:25:52;;;;;;;52.35;24.90;;;;;;;;;;4880160;29;20037;-75
2022/12/23 05:28:19;;;;;;;48.47;24.63;;;;;;;;;;4881081;29;20060;-75
2022/12/23 05:30:45;;;;;;;49.08;23.90;;;;;;;;;;4880821;29;20121;-75
2022/12/23 05:33:10;;;;;;;51.53;24.88;;;;;;;;;;4881505;29;20074;-76
2022/12/23 05:35:37;;;;;;;48.85;24.35;;;;;;;;;;4878575;29;20037;-78
2022/12/23 05:38:03;;;;;;;52.08;26.45;;;;;;;;;;4880719;29;20027;-76
2022/12/23 05:40:29;;;;;;;49.10;25.52;;;;;;;;;;4878247;29;20499;-77
2022/12/23 05:42:55;;;;;;;48.10;24.85;;;;;;;;;;4878347;29;20109;-81
2022/12/23 05:45:21;;;;;;;44.80;24.20;;;;;;;;;;4877856;29;20120;-75
2022/12/23 05:47:48;;;;;;;44.42;24.60;;;;;;;;;;4879878;29;20476;-75
2022/12/23 05:50:14;;;;;;;56.83;29.45;;;;;;;;;;4879775;29;20043;-74
2022/12/23 05:52:40;;;;;;;67.63;32.30;;;;;;;;;;4878515;29;20021;-72
2022/12/23 05:55:06;;;;;;;67.78;33.60;;;;;;;;;;4861853;29;20086;-73
2022/12/23 05:57:32;;;;;;;84.72;36.35;;;;;;;;;;4877774;29;20072;-73
2022/12/23 05:59:58;;;;;;;84.25;35.45;;;;;;;;;;4878342;29;20444;-73
2022/12/23 06:02:24;;;;;;;67.78;33.05;;;;;;;;;;4877465;29;20104;-73
2022/12/23 06:04:49;;;;;;;64.25;31.80;;;;;;;;;;4878550;29;20033;-73
2022/12/23 06:07:16;;;;;;;55.42;29.08;;;;;;;;;;4874329;29;20037;-73
2022/12/23 06:09:42;;;;;;;71.95;31.65;;;;;;;;;;4875182;29;20037;-73
2022/12/23 06:12:07;;;;;;;68.38;30.83;;;;;;;;;;4878711;29;20061;-72
2022/12/23 06:14:35;;;;;;;56.03;28.55;;;;;;;;;;4878314;29;20059;-72
2022/12/23 06:17:01;;;;;;;55.30;28.02;;;;;;;;;;4875984;29;20025;-74
2022/12/23 06:19:27;;;;;;;68.28;28.50;;;;;;;;;;4877115;29;20052;-74
2022/12/23 06:21:53;;;;;;;65.28;28.52;;;;;;;;;;4877908;29;20029;-73
2022/12/23 06:24:18;;;;;;;58.65;30.02;;;;;;;;;;4876886;29;20052;-74
2022/12/23 06:26:44;;;;;;;57.63;30.05;;;;;;;;;;4860877;29;20124;-74
2022/12/23 06:29:10;;;;;;;59.67;30.33;;;;;;;;;;4878101;29;20120;-75
2022/12/23 06:31:36;;;;;;;61.75;27.17;;;;;;;;;;4877398;29;20032;-74
2022/12/23 06:34:02;;;;;;;50.67;27.17;;;;;;;;;;4877178;29;20369;-74
2022/12/23 06:36:27;;;;;;;53.45;25.20;;;;;;;;;;4876045;29;20029;-73
2022/12/23 06:38:53;;;;;;;51.10;26.13;;;;;;;;;;4878649;29;20052;-74
2022/12/23 06:41:19;;;;;;;57.15;27.70;;;;;;;;;;4878741;29;20081;-73
2022/12/23 06:43:46;;;;;;;45.40;25.23;;;;;;;;;;4873789;29;20049;-74
2022/12/23 06:46:13;;;;;;;41.80;25.52;;;;;;;;;;4860674;29;20049;-74
2022/12/23 06:48:38;;;;;;;41.70;24.80;;;;;;;;;;4870921;29;20522;-74
2022/12/23 06:51:04;;;;;;;53.65;26.73;;;;;;;;;;4874327;29;20025;-75
2022/12/23 06:53:30;;;;;;;49.25;27.38;;;;;;;;;;4883756;29;20045;-75
2022/12/23 06:56:00;;;;;;;55.47;28.98;;;;;;;;;;4880881;29;20039;-75
2022/12/23 06:58:26;;;;;;;57.70;30.33;;;;;;;;;;4876715;29;20037;-73
2022/12/23 07:00:53;;;;;;;59.58;31.80;;;;;;;;;;4878329;29;20053;-76
2022/12/23 07:03:19;;;;;;;69.53;38.55;;;;;;;;;;4878371;29;20045;-74
2022/12/23 07:05:51;;;;;;;92.88;45.70;;;;;;;;;;4876468;29;20025;-76
2022/12/23 07:08:17;;;;;;;68.90;39.40;;;;;;;;;;4878924;29;20037;-75
2022/12/23 07:10:43;;;;;;;66.15;39.45;;;;;;;;;;4871889;29;20381;-75
2022/12/23 07:13:10;;;;;;;60.30;35.95;;;;;;;;;;4874806;29;20034;-75
2022/12/23 07:15:38;;;;;;;65.47;39.42;;;;;;;;;;4874470;29;20028;-74
2022/12/23 07:18:05;;;;;;;63.53;34.88;;;;;;;;;;4877114;29;20081;-75
2022/12/23 07:20:31;;;;;;;58.78;33.25;;;;;;;;;;4877719;29;20071;-74
2022/12/23 07:22:57;;;;;;;56.25;32.35;;;;;;;;;;4866725;29;20121;-74
2022/12/23 07:25:24;;;;;;;64.03;32.40;;;;;;;;;;4878110;29;20033;-75
2022/12/23 07:27:55;;;;;;;66.90;32.75;;;;;;;;;;4859151;29;20049;-75
2022/12/23 07:30:22;;;;;;;61.95;33.05;;;;;;;;;;4871042;29;20040;-73
2022/12/23 07:32:50;;;;;;;62.92;33.35;;;;;;;;;;4877901;29;20040;-77
2022/12/23 07:35:16;;;;;;;50.92;30.00;;;;;;;;;;4877283;29;20088;-75
2022/12/23 07:37:42;;;;;;;46.72;27.70;;;;;;;;;;4878287;29;20029;-76
2022/12/23 07:40:09;;;;;;;49.30;27.15;;;;;;;;;;4870644;29;20629;-75
2022/12/23 07:42:35;;;;;;;49.83;27.95;;;;;;;;;;4867443;29;20048;-76
2022/12/23 07:45:02;;;;;;;55.22;32.05;;;;;;;;;;4864291;29;20100;-77
2022/12/23 07:47:29;;;;;;;58.45;32.17;;;;;;;;;;4865693;29;20444;-78
2022/12/23 07:49:56;;;;;;;91.10;52.97;;;;;;;;;;4871075;29;20052;-76
2022/12/23 07:52:22;;;;;;;72.90;41.42;;;;;;;;;;4837932;29;20025;-74
2022/12/23 07:54:48;;;;;;;71.15;38.13;;;;;;;;;;4868470;29;20111;-75
2022/12/23 07:57:14;;;;;;;79.25;40.30;;;;;;;;;;4866886;29;20170;-74
2022/12/23 07:59:39;;;;;;;76.72;43.63;;;;;;;;;;4875283;29;20457;-75
2022/12/23 08:02:05;;;;;;;75.57;40.90;;;;;;;;;;4875629;29;20021;-75
2022/12/23 08:04:31;;;;;;;71.35;38.17;;;;;;;;;;4874494;29;20083;-76
2022/12/23 08:06:57;;;;;;;68.10;38.40;;;;;;;;;;4859778;29;20061;-76
2022/12/23 08:09:23;;;;;;;62.75;32.95;;;;;;;;;;4859547;29;20041;-75
2022/12/23 08:11:48;;;;;;;64.57;34.03;;;;;;;;;;4859695;29;20403;-76
2022/12/23 08:14:14;;;;;;;60.70;34.80;;;;;;;;;;4887949;29;20124;-76
2022/12/23 08:16:40;;;;;;;58.72;34.50;;;;;;;;;;4878362;29;20029;-76
2022/12/23 08:19:06;;;;;;;61.58;33.42;;;;;;;;;;4875731;29;20423;-76
2022/12/23 08:21:32;;;;;;;65.47;32.67;;;;;;;;;;4877099;29;20132;-76
2022/12/23 08:23:58;;;;;;;61.33;34.05;;;;;;;;;;4877610;29;20045;-76
2022/12/23 08:26:24;;;;;;;63.05;32.70;;;;;;;;;;4875572;29;20021;-76
2022/12/23 08:28:52;;;;;;;63.60;32.70;;;;;;;;;;4878383;29;20487;-75
2022/12/23 08:31:24;;;;;;;60.90;35.28;;;;;;;;;;4862871;29;20080;-77
2022/12/23 08:33:53;;;;;;;64.60;35.58;;;;;;;;;;4874238;29;20037;-77
2022/12/23 08:36:22;;;;;;;65.55;36.55;;;;;;;;;;4875326;29;20052;-78
2022/12/23 08:38:52;;;;;;;62.00;31.73;;;;;;;;;;4861694;29;20041;-74
2022/12/23 08:41:23;;;;;;;60.25;32.88;;;;;;;;;;4877640;29;20041;-75
2022/12/23 08:43:52;;;;;;;60.42;30.75;;;;;;;;;;4872650;29;20077;-74
2022/12/23 08:46:19;;;;;;;63.10;33.45;;;;;;;;;;4871817;29;20056;-73
2022/12/23 08:48:45;;;;;;;56.53;29.98;;;;;;;;;;4881555;29;20033;-74
2022/12/23 08:51:13;;;;;;;52.75;29.95;;;;;;;;;;4891000;29;20039;-73
2022/12/23 08:53:39;;;;;;;67.45;31.42;;;;;;;;;;4876818;29;20040;-75
2022/12/23 08:56:11;;;;;;;55.55;30.25;;;;;;;;;;4878171;29;20024;-73
2022/12/23 08:58:38;;;;;;;49.60;27.85;;;;;;;;;;4881648;29;20139;-74
2022/12/23 09:01:05;;;;;;;53.78;29.98;;;;;;;;;;4886786;29;20033;-75
2022/12/23 09:03:33;;;;;;;48.30;27.55;;;;;;;;;;4882876;29;20036;-72
2022/12/23 09:06:02;;;;;;;50.72;27.88;;;;;;;;;;4879267;29;20024;-75
2022/12/23 09:08:28;;;;;;;42.75;27.10;;;;;;;;;;4880076;29;20057;-74
2022/12/23 09:10:54;;;;;;;47.50;27.75;;;;;;;;;;4880386;29;20036;-75
2022/12/23 09:13:20;;;;;;;49.90;25.55;;;;;;;;;;4881055;29;20724;-74
2022/12/23 09:15:45;;;;;;;45.25;25.70;;;;;;;;;;4881333;29;20085;-77
2022/12/23 09:18:11;;;;;;;44.85;25.55;;;;;;;;;;4879213;29;20037;-76
2022/12/23 09:20:38;;;;;;;42.53;24.83;;;;;;;;;;4879521;29;20057;-75
2022/12/23 09:23:04;;;;;;;43.15;23.85;;;;;;;;;;4879272;29;20104;-75
2022/12/23 09:25:31;;;;;;;40.72;23.77;;;;;;;;;;4876184;29;20355;-75
2022/12/23 09:27:57;;;;;;;43.88;24.55;;;;;;;;;;4878265;29;20451;-75
2022/12/23 09:30:23;;;;;;;40.95;21.38;;;;;;;;;;4877108;29;20112;-74
2022/12/23 09:32:49;;;;;;;35.63;21.85;;;;;;;;;;4879085;29;20036;-74
2022/12/23 09:35:15;;;;;;;40.22;23.15;;;;;;;;;;4878958;29;20089;-74
2022/12/23 09:37:41;;;;;;;47.90;26.02;;;;;;;;;;4878341;29;20037;-74
2022/12/23 09:40:10;;;;;;;47.83;28.10;;;;;;;;;;4877779;29;20321;-73
2022/12/23 09:43:01;;;;;;;42.33;24.50;;;;;;;;;;4878296;29;20377;-76
2022/12/23 09:45:32;;;;;;;45.25;23.38;;;;;;;;;;4878863;29;20041;-74
2022/12/23 09:47:58;;;;;;;43.10;25.10;;;;;;;;;;4877458;29;20181;-75
2022/12/23 09:50:28;;;;;;;44.90;25.40;;;;;;;;;;4874513;29;20085;-74
2022/12/23 09:53:04;;;;;;;42.13;24.08;;;;;;;;;;4874378;29;20087;-74
2022/12/23 09:55:47;;;;;;;42.30;23.23;;;;;;;;;;4867066;29;20036;-73
2022/12/23 09:58:30;;;;;;;42.97;25.02;;;;;;;;;;4874460;29;20736;-73
2022/12/23 10:01:14;;;;;;;40.65;23.73;;;;;;;;;;4880924;29;20037;-72
2022/12/23 10:03:59;;;;;;;39.92;22.15;;;;;;;;;;4877564;29;20033;-73
2022/12/23 10:06:28;;;;;;;39.80;23.00;;;;;;;;;;4874943;29;20068;-73
2022/12/23 10:09:03;;;;;;;37.20;20.98;;;;;;;;;;4879346;29;20080;-73
2022/12/23 10:11:45;;;;;;;42.03;23.23;;;;;;;;;;4879105;29;20041;-74
2022/12/23 10:14:21;;;;;;;36.88;22.17;;;;;;;;;;4877336;29;20041;-75
2022/12/23 10:16:56;;;;;;;38.50;21.00;;;;;;;;;;4877760;29;20045;-77
2022/12/23 10:19:32;;;;;;;40.53;21.70;;;;;;;;;;4897576;29;20173;-77
2022/12/23 10:22:10;;;;;;;38.00;21.13;;;;;;;;;;4897681;29;20107;-74
2022/12/23 10:24:44;;;;;;;36.63;21.45;;;;;;;;;;4897320;29;20558;-75
2022/12/23 10:27:24;;;;;;;37.92;21.75;;;;;;;;;;4885178;29;20044;-73
2022/12/23 10:29:50;;;;;;;39.13;22.67;;;;;;;;;;4862642;29;20051;-74
2022/12/23 10:32:16;;;;;;;34.95;21.60;;;;;;;;;;4878977;29;20033;-74
2022/12/23 10:34:53;;;;;;;35.00;22.45;;;;;;;;;;4881327;29;20036;-73
2022/12/23 10:37:22;;;;;;;38.72;24.13;;;;;;;;;;4878827;29;20067;-74
2022/12/23 10:40:15;;;;;;;38.75;22.83;;;;;;;;;;4876423;29;20502;-74
2022/12/23 10:42:58;;;;;;;40.97;24.45;;;;;;;;;;4877889;29;20060;-75
2022/12/23 10:45:50;;;;;;;39.83;22.23;;;;;;;;;;4878617;29;20526;-75
2022/12/23 10:48:28;;;;;;;33.60;20.92;;;;;;;;;;4878984;29;20488;-73
2022/12/23 10:51:02;;;;;;;35.65;21.50;;;;;;;;;;4879132;29;20110;-74
2022/12/23 10:53:31;;;;;;;;;;;;;;;;;;4864193;29;20071;-76
2022/12/23 10:55:58;;;;;;;34.80;21.08;;;;;;;;;;4860367;29;20354;-74
2022/12/23 10:58:25;;;;;;;34.45;20.50;;;;;;;;;;4859884;29;20049;-76
2022/12/23 11:00:57;;;;;;;36.22;21.45;;;;;;;;;;4874256;29;20101;-74
2022/12/23 11:03:58;;;;;;;41.60;23.15;;;;;;;;;;4877467;29;20108;-74
2022/12/23 11:06:24;;;;;;;47.00;24.17;;;;;;;;;;4874493;29;20053;-75
2022/12/23 11:08:52;;;;;;;35.03;20.67;;;;;;;;;;4863044;29;20678;-76
2022/12/23 11:11:18;;;;;;;38.28;22.48;;;;;;;;;;4860367;29;20131;-76
2022/12/23 11:13:45;;;;;;;39.85;22.25;;;;;;;;;;4859495;29;20488;-74
2022/12/23 11:16:20;;;;;;;35.95;22.05;;;;;;;;;;4877590;29;20041;-75
2022/12/23 11:19:13;;;;;;;37.58;21.15;;;;;;;;;;4877844;29;20041;-76
2022/12/23 11:21:54;;;;;;;46.07;23.40;;;;;;;;;;4876139;29;20499;-73
2022/12/23 11:24:21;;;;;;;37.10;21.25;;;;;;;;;;4876979;29;20287;-75
2022/12/23 11:27:00;;;;;;;32.10;19.00;;;;;;;;;;4859894;29;20022;-74
2022/12/23 11:29:42;;;;;;;31.08;18.95;;;;;;;;;;4860191;29;20034;-75
2022/12/23 11:32:24;;;;;;;36.15;19.65;;;;;;;;;;4860624;29;20037;-75
2022/12/23 11:34:52;;;;;;;35.30;20.45;;;;;;;;;;4869766;29;20048;-77
2022/12/23 11:37:39;;;;;;;40.13;22.25;;;;;;;;;;4877146;29;20029;-76
2022/12/23 11:40:20;;;;;;;40.15;21.52;;;;;;;;;;4868411;29;20037;-76
2022/12/23 11:42:46;;;;;;;37.92;21.42;;;;;;;;;;4894647;29;20032;-75
2022/12/23 11:45:22;;;;;;;43.55;20.95;;;;;;;;;;4875109;29;20094;-75
2022/12/23 11:47:48;;;;;;;33.83;19.75;;;;;;;;;;4861094;29;20076;-76
2022/12/23 11:50:34;;;;;;;37.35;20.67;;;;;;;;;;4875398;29;20109;-75
2022/12/23 11:53:09;;;;;;;36.30;20.63;;;;;;;;;;4856928;29;20041;-75
2022/12/23 11:55:38;;;;;;;37.53;22.38;;;;;;;;;;4871899;29;20117;-76
2022/12/23 11:58:04;;;;;;;38.35;22.30;;;;;;;;;;4872722;29;20492;-78
2022/12/23 12:00:41;;;;;;;43.13;23.15;;;;;;;;;;4869858;29;20043;-76
2022/12/23 12:03:16;;;;;;;46.15;22.88;;;;;;;;;;4876143;29;20089;-76
2022/12/23 12:06:13;;;;;;;39.78;22.40;;;;;;;;;;4877864;29;20067;-75
2022/12/23 12:08:40;;;;;;;41.10;22.33;;;;;;;;;;4880799;29;20128;-75
2022/12/23 12:11:17;;;;;;;43.92;23.08;;;;;;;;;;4859512;29;20039;-75
2022/12/23 12:13:48;;;;;;;41.35;21.95;;;;;;;;;;4860326;29;20131;-76
2022/12/23 12:16:48;;;;;;;36.63;22.30;;;;;;;;;;4860864;29;20045;-74
2022/12/23 12:19:27;;;;;;;38.88;22.55;;;;;;;;;;4865808;29;20444;-76
2022/12/23 12:21:57;;;;;;;41.25;23.02;;;;;;;;;;4881058;29;20134;-76
2022/12/23 12:24:31;;;;;;;37.95;23.25;;;;;;;;;;4880152;29;20040;-75
2022/12/23 12:27:02;;;;;;;48.25;24.63;;;;;;;;;;4878446;29;20381;-74
2022/12/23 12:29:52;;;;;;;41.30;23.13;;;;;;;;;;4880253;29;20129;-75
2022/12/23 12:32:39;;;;;;;45.47;25.55;;;;;;;;;;4880609;29;20033;-77
2022/12/23 12:35:12;;;;;;;46.05;25.23;;;;;;;;;;4879818;29;20032;-77
2022/12/23 12:38:00;;;;;;;49.03;26.47;;;;;;;;;;4876902;29;20100;-77
2022/12/23 12:40:37;;;;;;;45.28;26.48;;;;;;;;;;4877770;29;20029;-75
2022/12/23 12:43:14;;;;;;;43.42;24.40;;;;;;;;;;4879240;29;20033;-77
2022/12/23 12:46:01;;;;;;;55.15;26.00;;;;;;;;;;4879137;29;20064;-75
2022/12/23 12:48:45;;;;;;;37.08;23.67;;;;;;;;;;4879666;29;20065;-78
2022/12/23 12:51:29;;;;;;;53.78;29.45;;;;;;;;;;4877661;29;20067;-76
2022/12/23 12:54:13;;;;;;;52.33;25.05;;;;;;;;;;4879497;29;20492;-77
2022/12/23 12:56:56;;;;;;;42.40;24.15;;;;;;;;;;4878625;29;20048;-77
2022/12/23 12:59:27;;;;;;;43.60;21.55;;;;;;;;;;4879666;29;20033;-77
2022/12/23 13:02:18;;;;;;;42.75;21.77;;;;;;;;;;4878871;29;20033;-77
2022/12/23 13:04:59;;;;;;;34.55;21.38;;;;;;;;;;4879927;29;20068;-77
2022/12/23 13:07:32;;;;;;;38.67;22.13;;;;;;;;;;4880607;29;20103;-77
2022/12/23 13:10:20;;;;;;;37.45;20.67;;;;;;;;;;4878911;29;20037;-75
2022/12/23 13:13:00;;;;;;;37.03;20.75;;;;;;;;;;4878885;29;20191;-77
2022/12/23 13:15:37;;;;;;;39.08;22.38;;;;;;;;;;4881868;29;20037;-75
2022/12/23 13:18:08;;;;;;;39.83;21.17;;;;;;;;;;4881841;29;20037;-76
2022/12/23 13:20:49;;;;;;;38.55;20.50;;;;;;;;;;4875848;29;20059;-76
2022/12/23 13:23:46;;;;;;;39.40;21.52;;;;;;;;;;4878139;29;20184;-76
2022/12/23 13:26:36;;;;;;;37.38;20.67;;;;;;;;;;4893910;29;20048;-76
2022/12/23 13:29:29;;;;;;;31.30;17.95;;;;;;;;;;4879101;29;20044;-76
2022/12/23 13:32:00;;;;;;;35.80;18.95;;;;;;;;;;4878136;29;20048;-77
2022/12/23 13:34:44;;;;;;;30.40;18.17;;;;;;;;;;4876685;29;20033;-77
2022/12/23 13:37:19;;;;;;;35.83;19.77;;;;;;;;;;4879992;29;20053;-78
2022/12/23 13:40:22;;;;;;;42.38;20.58;;;;;;;;;;4878923;29;20036;-78
2022/12/23 13:42:53;;;;;;;46.42;23.33;;;;;;;;;;4892997;29;20070;-77
2022/12/23 13:45:21;;;;;;;52.92;29.08;;;;;;;;;;4861324;29;20029;-77
2022/12/23 13:48:09;;;;;;;55.67;26.10;;;;;;;;;;4879840;29;20021;-77
2022/12/23 13:50:41;;;;;;;63.72;32.78;;;;;;;;;;4877128;29;20057;-76
2022/12/23 13:53:23;;;;;;;52.42;26.33;;;;;;;;;;4876995;29;20064;-75
2022/12/23 13:56:02;;;;;;;48.08;24.73;;;;;;;;;;4879022;29;20117;-77
2022/12/23 13:58:32;;;;;;;53.08;25.73;;;;;;;;;;4880166;29;20040;-76
2022/12/23 14:01:09;;;;;;;44.28;23.73;;;;;;;;;;4878607;29;20185;-77
2022/12/23 14:03:37;;;;;;;47.85;24.95;;;;;;;;;;4876630;29;20463;-75
2022/12/23 14:06:18;;;;;;;37.38;21.42;;;;;;;;;;4880061;29;20080;-75
2022/12/23 14:08:46;;;;;;;58.13;24.80;;;;;;;;;;4877538;29;20040;-77
2022/12/23 14:11:25;;;;;;;41.88;21.60;;;;;;;;;;4878737;29;20029;-77
2022/12/23 14:13:50;;;;;;;41.72;20.35;;;;;;;;;;4878758;29;20566;-76
2022/12/23 14:16:35;;;;;;;31.92;18.92;;;;;;;;;;4881656;29;20104;-76
2022/12/23 14:19:25;;;;;;;32.38;18.52;;;;;;;;;;4878386;29;20055;-75
2022/12/23 14:22:02;;;;;;;33.30;17.50;;;;;;;;;;4876248;29;20044;-76
2022/12/23 14:24:43;;;;;;;45.20;21.33;;;;;;;;;;4878250;29;20036;-76
2022/12/23 14:27:30;;;;;;;45.30;23.25;;;;;;;;;;4874742;29;20055;-75
2022/12/23 14:30:10;;;;;;;50.38;25.88;;;;;;;;;;4882247;29;20042;-76
2022/12/23 14:32:43;;;;;;;54.53;24.60;;;;;;;;;;4870751;29;20468;-76
2022/12/23 14:35:24;;;;;;;46.70;23.65;;;;;;;;;;4866232;29;20056;-76
2022/12/23 14:38:03;;;;;;;47.55;24.58;;;;;;;;;;4867807;29;20037;-76
2022/12/23 14:40:38;;;;;;;49.30;26.48;;;;;;;;;;4866082;29;20056;-76
2022/12/23 14:43:25;;;;;;;47.88;25.15;;;;;;;;;;4868212;29;20072;-75
2022/12/23 14:45:52;;;;;;;48.05;26.35;;;;;;;;;;4866056;29;20044;-74
2022/12/23 14:48:33;;;;;;;66.03;29.50;;;;;;;;;;4869932;29;20039;-73
2022/12/23 14:51:07;;;;;;;68.10;36.13;;;;;;;;;;4867302;29;20056;-73
2022/12/23 14:53:33;;;;;;;61.55;28.33;;;;;;;;;;4870714;29;20189;-75
2022/12/23 14:56:13;;;;;;;49.20;25.73;;;;;;;;;;4869868;29;20044;-74
2022/12/23 14:58:48;;;;;;;57.78;31.40;;;;;;;;;;4869654;29;20040;-73
2022/12/23 15:01:31;;;;;;;53.17;27.35;;;;;;;;;;4868209;29;20124;-73
2022/12/23 15:04:04;;;;;;;56.30;30.77;;;;;;;;;;4870581;29;20037;-75
2022/12/23 15:06:53;;;;;;;62.35;29.98;;;;;;;;;;4866552;29;20053;-74
2022/12/23 15:09:33;;;;;;;69.43;32.63;;;;;;;;;;4867764;29;20049;-76